ESSBESGG [DAF242]

Guest
Details From ESSB - Bromma
To ESGG - Goteborg Landvetter
Flight Number DAF242
Tags Real Commercial Decoded
Created
Modified
Stats Distance 219 nm / 405 km
Max Altitude 16,000 ft / 4,877 m
Waypoints 7
Social Downloads 11
Likes 0
Share VATSIM

Download

Looking for another format? Having issues loading an existing format? Contact us
Advertisement - Login to hide

Notes

Decoded

Route

ESSB TINKA PELIT DEPEX LAPSI MOXAM ESGG

ID Type Via Altitude Latitude Longitude Leg Dist Tot Dist Heading (true) Name
O ESSB APT - 0 ft / 0 m 59.35867˚ 17.92964˚ - 0 nm - -
TINKA FIX - 16,000 ft / 4,877 m 59.20519˚ 16.29639˚ 50 nm 50 nm 260° / 259° -
PELIT FIX - 16,000 ft / 4,877 m 59.20042˚ 15.68781˚ 18 nm 69 nm 269° / 269° -
DEPEX FIX - 16,000 ft / 4,877 m 59.19194˚ 15.02247˚ 20 nm 90 nm 269° / 268° -
LAPSI FIX - 16,000 ft / 4,877 m 58.92053˚ 14.30547˚ 27 nm 117 nm 234° / 233° -
MOXAM FIX - 16,000 ft / 4,877 m 58.53136˚ 13.31392˚ 38 nm 156 nm 233° / 232° -
O ESGG APT - 0 ft / 0 m 57.64952˚ 12.26771˚ 62 nm 218 nm 213° / 212° -

Altitude Profile

Advertisement - Login to hide

Weather


0- 5 10 15 20 25 30 35+ Temperature / ° C

Clouds and Precipitation
Forecast for 2018-05-21 18:00 UTC. Updated 2 hours ago

Ground ~20,000 ft ~40,000 ft Winds

ESSB

Details ICAO ESSB (BMA)
Name BROMMA
Region Sweden
Timezone Europe/Stockholm (UTC+2.0)
Stats Elevation 47 ft / 14 m (AMSL)
Location 59.354389° 17.941604°
Runways 1
Magnetic Variation 6.119° E

METAR

ESSB 211920Z 15005KT CAVOK 19/07 Q1024

Decode

TAF

Not found

Departure Runways

ID Width Length Bearing (true) Bearing (mag) Surface Threshold Offset Overrun Length
12 148 ft / 45 m 6,201 ft / 1,890 m 125.06° 118.94° Asphalt 381 ft / 116 m 0 ft / 0 m
30 148 ft / 45 m 6,201 ft / 1,890 m 305.09° 298.97° Asphalt 361 ft / 110 m 0 ft / 0 m

ESGG

Details ICAO ESGG (GOT)
Name Goteborg Landvetter
Region Sweden
Timezone Europe/Stockholm (UTC+2.0)
Stats Elevation 506 ft / 154 m (AMSL)
Location 57.662836° 12.279819°
Runways 1
Magnetic Variation 3.783° E

METAR

ESGG 211920Z 35005KT CAVOK 16/06 Q1023

Decode

TAF

TAF TAF ESGG 211730Z 2118/2218 VRB02KT CAVOK

Decode

Destination Runways

ID Width Length Bearing (true) Bearing (mag) Surface Threshold Offset Overrun Length
03 148 ft / 45 m 10,804 ft / 3,293 m 25.94° 22.16° Asphalt 0 ft / 0 m 207 ft / 63 m
21 148 ft / 45 m 10,804 ft / 3,293 m 205.96° 202.18° Asphalt 0 ft / 0 m 207 ft / 63 m

Approach Navaids

Runway Type Ident Frequency Range Bearing (true) Bearing (mag) Slope Elevation
03 Localiser SSG 110.30 MHz 18 nm / 33 km 25.98° 22.19° - 506 ft / 154 m (AMSL)
03 Glidescope SSG 110.30 MHz 10 nm / 19 km 25.95° 22.17° 3.00° 506 ft / 154 m (AMSL)
21 Localiser NGG 108.50 MHz 18 nm / 33 km 205.92° 202.14° - 506 ft / 154 m (AMSL)
21 Glidescope NGG 108.50 MHz 10 nm / 19 km 205.95° 202.17° 3.00° 506 ft / 154 m (AMSL)

Popular Alternatives